createdAt,value
2018-09-03T00:01:01.009Z,4.93
2018-09-03T00:03:34.334Z,5.83
2018-09-03T00:06:07.702Z,5.37
2018-09-03T00:08:42.333Z,6.40
2018-09-03T00:11:15.660Z,7.23
2018-09-03T00:13:48.921Z,6.33
2018-09-03T00:16:22.810Z,5.07
2018-09-03T00:18:56.149Z,5.57
2018-09-03T00:21:30.752Z,7.53
2018-09-03T00:24:05.035Z,5.10
2018-09-03T00:26:38.314Z,5.67
2018-09-03T00:29:12.644Z,6.10
2018-09-03T00:31:52.043Z,3.97
2018-09-03T00:34:37.212Z,4.90
2018-09-03T00:37:19.112Z,4.17
2018-09-03T00:39:57.184Z,4.40
2018-09-03T00:42:35.372Z,5.30
2018-09-03T00:45:12.922Z,4.07
2018-09-03T00:47:45.481Z,5.77
2018-09-03T00:50:18.272Z,7.27
2018-09-03T00:52:50.676Z,5.10
2018-09-03T00:55:26.109Z,4.83
2018-09-03T00:57:58.924Z,5.57
2018-09-03T01:00:32.404Z,4.67
2018-09-03T01:03:05.040Z,5.37
2018-09-03T01:05:39.244Z,4.95
2018-09-03T01:08:11.908Z,4.63
2018-09-03T01:10:44.661Z,7.20
2018-09-03T01:13:17.945Z,4.27
2018-09-03T01:15:50.424Z,5.70
2018-09-03T01:18:22.996Z,4.57
2018-09-03T01:20:56.831Z,6.07
2018-09-03T01:23:29.362Z,6.10
2018-09-03T01:26:01.739Z,6.07
2018-09-03T01:28:36.645Z,5.17
2018-09-03T01:31:11.412Z,8.03
2018-09-03T01:33:46.615Z,4.83
2018-09-03T01:36:20.959Z,4.90
2018-09-03T01:38:55.235Z,6.90
2018-09-03T01:41:28.740Z,4.73
2018-09-03T01:44:02.432Z,4.30
2018-09-03T01:46:34.912Z,5.17
2018-09-03T01:49:07.456Z,6.70
2018-09-03T01:51:41.108Z,6.83
2018-09-03T01:54:14.425Z,5.93
2018-09-03T01:56:47.735Z,7.17
2018-09-03T01:59:21.636Z,9.67
2018-09-03T02:01:54.525Z,7.40
2018-09-03T02:04:51.498Z,8.37
2018-09-03T02:07:26.944Z,7.03
2018-09-03T02:09:59.726Z,5.00
2018-09-03T02:12:32.831Z,6.13
2018-09-03T02:15:12.550Z,7.03
2018-09-03T02:17:45.735Z,4.70
2018-09-03T02:20:21.514Z,6.05
2018-09-03T02:22:54.606Z,5.78
2018-09-03T02:25:31.406Z,8.10
2018-09-03T02:28:03.955Z,8.70
2018-09-03T02:30:38.482Z,5.82
2018-09-03T02:33:12.518Z,6.67
2018-09-03T02:35:45.749Z,7.03
2018-09-03T02:38:18.972Z,6.77
2018-09-03T02:40:52.510Z,6.57
2018-09-03T02:43:26.769Z,4.97
2018-09-03T02:45:59.694Z,5.75
2018-09-03T02:48:32.223Z,5.80
2018-09-03T02:51:06.271Z,5.73
2018-09-03T02:53:39.148Z,6.37
2018-09-03T02:56:15.568Z,4.70
2018-09-03T02:58:48.746Z,5.83
2018-09-03T03:01:22.609Z,5.83
2018-09-03T03:03:55.198Z,4.93
2018-09-03T03:06:27.854Z,4.57
2018-09-03T03:09:03.562Z,6.00
2018-09-03T03:11:38.062Z,6.97
2018-09-03T03:14:10.581Z,6.47
2018-09-03T03:16:43.400Z,7.07
2018-09-03T03:19:16.021Z,6.17
2018-09-03T03:21:48.955Z,6.47
2018-09-03T03:24:21.919Z,6.17
2018-09-03T03:26:54.576Z,5.73
2018-09-03T03:29:27.083Z,7.40
2018-09-03T03:32:01.148Z,7.57
2018-09-03T03:34:33.496Z,6.87
2018-09-03T03:37:06.319Z,6.93
2018-09-03T03:39:39.320Z,5.60
2018-09-03T03:42:11.861Z,7.60
2018-09-03T03:44:44.692Z,5.47
2018-09-03T03:47:18.455Z,8.77
2018-09-03T03:49:51.809Z,10.63
2018-09-03T03:52:24.693Z,7.95
2018-09-03T03:54:58.721Z,7.30
2018-09-03T03:57:31.199Z,9.57
2018-09-03T04:00:06.292Z,8.57
2018-09-03T04:02:39.166Z,5.30
2018-09-03T04:05:13.297Z,5.73
2018-09-03T04:07:47.693Z,8.20
2018-09-03T04:10:21.037Z,5.67
2018-09-03T04:12:57.656Z,6.77
2018-09-03T04:15:30.073Z,5.80
2018-09-03T04:18:04.191Z,5.27
2018-09-03T04:20:36.636Z,7.10
2018-09-03T04:23:09.421Z,4.97
2018-09-03T04:25:43.712Z,4.70
2018-09-03T04:28:16.813Z,6.30
2018-09-03T04:30:50.700Z,7.97
2018-09-03T04:33:24.545Z,3.80
2018-09-03T04:35:57.056Z,6.27
2018-09-03T04:38:29.657Z,8.17
2018-09-03T04:41:02.347Z,7.70
2018-09-03T04:43:34.809Z,5.33
2018-09-03T04:46:08.480Z,6.60
2018-09-03T04:48:41.376Z,6.27
2018-09-03T04:51:14.100Z,7.33
2018-09-03T04:53:46.695Z,5.63
2018-09-03T04:56:21.129Z,5.73
2018-09-03T04:58:53.927Z,4.53
2018-09-03T05:01:26.503Z,5.50
2018-09-03T05:03:59.336Z,6.37
2018-09-03T05:06:31.913Z,5.77
2018-09-03T05:09:05.772Z,9.00
2018-09-03T05:11:39.684Z,6.07
2018-09-03T05:14:13.054Z,7.45
2018-09-03T05:16:49.164Z,5.83
2018-09-03T05:19:23.946Z,7.37
2018-09-03T05:21:59.292Z,9.70
2018-09-03T05:24:33.515Z,7.80
2018-09-03T05:27:06.399Z,4.70
2018-09-03T05:29:40.309Z,9.60
2018-09-03T05:32:13.964Z,9.03
2018-09-03T05:34:47.065Z,9.68
2018-09-03T05:37:19.857Z,9.53
2018-09-03T05:39:55.661Z,11.40
2018-09-03T05:42:28.140Z,8.77
2018-09-03T05:45:01.214Z,10.10
2018-09-03T05:47:34.805Z,9.50
2018-09-03T05:50:07.673Z,8.97
2018-09-03T05:52:41.687Z,8.57
2018-09-03T05:55:14.532Z,6.47
2018-09-03T05:57:47.077Z,10.83
2018-09-03T06:00:24.527Z,10.20
2018-09-03T06:02:57.069Z,7.07
2018-09-03T06:05:29.626Z,7.80
2018-09-03T06:08:07.212Z,7.07
2018-09-03T06:10:40.126Z,9.30
2018-09-03T06:13:12.448Z,10.43
2018-09-03T06:15:47.937Z,7.80
2018-09-03T06:18:21.284Z,7.77
2018-09-03T06:20:54.615Z,10.50
2018-09-03T06:23:28.673Z,10.07
2018-09-03T06:26:01.368Z,10.47
2018-09-03T06:28:35.186Z,7.20
2018-09-03T06:31:08.565Z,6.80
2018-09-03T06:33:42.196Z,9.90
2018-09-03T06:36:14.860Z,6.67
2018-09-03T06:38:48.284Z,7.60
2018-09-03T06:41:20.952Z,7.22
2018-09-03T06:43:55.276Z,6.40
2018-09-03T06:46:28.862Z,9.03
2018-09-03T06:49:02.192Z,7.50
2018-09-03T06:51:36.273Z,7.87
2018-09-03T06:54:12.394Z,7.27
2018-09-03T06:56:45.616Z,9.77
2018-09-03T06:59:19.784Z,8.23
2018-09-03T07:01:54.226Z,9.53
2018-09-03T07:04:27.348Z,10.10
2018-09-03T07:07:00.972Z,7.85
2018-09-03T07:09:34.135Z,7.83
2018-09-03T07:12:07.748Z,12.10
2018-09-03T07:14:43.939Z,9.87
2018-09-03T07:17:17.248Z,9.18
2018-09-03T07:19:56.862Z,10.90
2018-09-03T07:22:32.924Z,9.33
2018-09-03T07:25:06.196Z,11.30
2018-09-03T07:27:38.840Z,10.57
2018-09-03T07:30:13.685Z,12.53
2018-09-03T07:32:47.146Z,6.97
2018-09-03T07:35:21.885Z,14.17
2018-09-03T07:37:54.529Z,9.63
2018-09-03T07:40:27.832Z,9.03
2018-09-03T07:43:03.554Z,9.70
2018-09-03T07:45:36.727Z,10.83
2018-09-03T07:48:13.822Z,9.67
2018-09-03T07:50:48.593Z,10.17
2018-09-03T07:53:22.340Z,8.27
2018-09-03T07:55:57.851Z,7.77
2018-09-03T07:58:32.792Z,11.23
2018-09-03T08:01:10.324Z,9.73
2018-09-03T08:03:42.804Z,9.45
2018-09-03T08:06:17.023Z,8.73
2018-09-03T08:08:51.017Z,13.77
2018-09-03T08:11:24.071Z,9.33
2018-09-03T08:13:57.706Z,8.20
2018-09-03T08:16:30.439Z,10.63
2018-09-03T08:19:04.840Z,10.93
2018-09-03T08:21:37.999Z,8.40
2018-09-03T08:24:11.912Z,14.20
2018-09-03T08:26:45.854Z,10.17
2018-09-03T08:29:19.522Z,12.75
2018-09-03T08:31:55.311Z,11.33
2018-09-03T08:34:32.568Z,11.40
2018-09-03T08:37:08.905Z,14.70
2018-09-03T08:39:45.501Z,12.10
2018-09-03T08:42:19.836Z,18.67
2018-09-03T08:44:56.214Z,14.73
2018-09-03T08:47:29.306Z,16.93
2018-09-03T08:50:04.417Z,13.13
2018-09-03T08:52:39.123Z,11.50
2018-09-03T08:55:11.721Z,13.93
2018-09-03T08:57:47.310Z,17.37
2018-09-03T09:00:22.668Z,15.93
2018-09-03T09:02:57.608Z,20.07
2018-09-03T09:05:33.859Z,12.67
2018-09-03T09:08:10.016Z,18.10
2018-09-03T09:10:44.489Z,14.03
2018-09-03T09:13:18.791Z,14.30
2018-09-03T09:15:53.916Z,17.93
2018-09-03T09:18:29.609Z,15.90
2018-09-03T09:21:03.956Z,16.75
2018-09-03T09:23:39.621Z,13.93
2018-09-03T09:26:14.581Z,14.52
2018-09-03T09:28:48.125Z,15.53
2018-09-03T09:31:22.474Z,12.97
2018-09-03T09:34:00.304Z,12.97
2018-09-03T09:36:34.032Z,13.53
2018-09-03T09:39:12.552Z,11.60
2018-09-03T09:41:47.925Z,15.80
2018-09-03T09:44:20.437Z,13.87
2018-09-03T09:46:57.475Z,11.37
2018-09-03T09:49:30.022Z,14.50
2018-09-03T09:52:03.948Z,14.20
2018-09-03T09:54:36.705Z,11.63
2018-09-03T09:57:12.334Z,12.70
2018-09-03T09:59:45.942Z,12.68
2018-09-03T10:02:19.860Z,13.23
2018-09-03T10:04:52.873Z,14.00
2018-09-03T10:07:26.781Z,11.50
2018-09-03T10:10:00.692Z,12.35
2018-09-03T10:12:34.529Z,11.40
2018-09-03T10:15:07.024Z,11.20
2018-09-03T10:17:40.426Z,12.00
2018-09-03T10:20:14.107Z,12.00
2018-09-03T10:22:47.617Z,13.40
2018-09-03T10:25:20.993Z,14.00
2018-09-03T10:27:54.526Z,13.00
2018-09-03T10:30:54.859Z,11.70
2018-09-03T10:33:37.927Z,14.70
2018-09-03T10:36:10.761Z,12.65
2018-09-03T10:38:46.878Z,12.37
2018-09-03T10:41:19.872Z,12.63
2018-09-03T10:43:53.777Z,11.55
2018-09-03T10:46:28.019Z,10.37
2018-09-03T10:49:02.659Z,10.70
2018-09-03T10:51:36.944Z,10.33
2018-09-03T10:54:12.039Z,10.90
2018-09-03T10:56:45.263Z,10.60
2018-09-03T10:59:18.704Z,8.43
2018-09-03T11:01:54.624Z,10.25
2018-09-03T11:04:31.387Z,10.37
2018-09-03T11:07:04.088Z,6.90
2018-09-03T11:09:43.721Z,8.73
2018-09-03T11:12:19.657Z,9.87
2018-09-03T11:14:52.262Z,9.57
2018-09-03T11:17:27.227Z,9.20
2018-09-03T11:20:06.857Z,9.50
2018-09-03T11:22:40.228Z,9.53
2018-09-03T11:25:19.354Z,9.73
2018-09-03T11:27:53.712Z,8.87
2018-09-03T11:30:29.917Z,10.07
2018-09-03T11:33:04.548Z,12.20
2018-09-03T11:35:39.060Z,11.33
2018-09-03T11:38:16.946Z,11.83
2018-09-03T11:40:54.085Z,12.20
2018-09-03T11:43:27.296Z,10.90
2018-09-03T11:45:59.812Z,10.30
2018-09-03T11:48:32.443Z,11.37
2018-09-03T11:51:05.193Z,13.23
2018-09-03T11:53:38.480Z,10.93
2018-09-03T11:56:11.017Z,10.90
2018-09-03T11:58:45.207Z,10.77
2018-09-03T12:01:20.112Z,11.07
2018-09-03T12:03:52.644Z,10.03
2018-09-03T12:06:25.285Z,11.00
2018-09-03T12:09:03.405Z,11.13
2018-09-03T12:11:37.674Z,12.10
2018-09-03T12:14:18.552Z,9.17
2018-09-03T12:16:52.272Z,9.30
2018-09-03T12:19:25.645Z,11.48
2018-09-03T12:22:04.018Z,10.27
2018-09-03T12:24:39.606Z,12.47
2018-09-03T12:27:16.720Z,10.37
2018-09-03T12:29:50.917Z,12.23
2018-09-03T12:32:26.270Z,11.07
2018-09-03T12:34:59.437Z,10.40
2018-09-03T12:37:34.320Z,10.53
2018-09-03T12:40:07.356Z,11.77
2018-09-03T12:42:41.314Z,13.93
2018-09-03T12:45:59.311Z,10.67
2018-09-03T12:48:32.995Z,13.83
2018-09-03T12:51:05.786Z,13.25
2018-09-03T12:53:38.717Z,13.07
2018-09-03T12:56:12.265Z,13.60
2018-09-03T12:58:47.802Z,13.60
2018-09-03T13:01:21.609Z,12.60
2018-09-03T13:03:57.215Z,13.77
2018-09-03T13:06:31.339Z,12.20
2018-09-03T13:09:07.213Z,13.87
2018-09-03T13:11:39.830Z,13.68
2018-09-03T13:14:13.963Z,15.27
2018-09-03T13:16:49.315Z,11.13
2018-09-03T13:19:23.940Z,13.93
2018-09-03T13:21:59.477Z,12.23
2018-09-03T13:24:36.564Z,12.57
2018-09-03T13:27:11.188Z,12.80
2018-09-03T13:29:46.720Z,13.80
2018-09-03T13:32:21.313Z,15.15
2018-09-03T13:34:56.226Z,14.18
2018-09-03T13:37:31.024Z,13.77
2018-09-03T13:40:05.356Z,14.27
2018-09-03T13:42:40.209Z,15.70
2018-09-03T13:45:15.873Z,16.27
2018-09-03T13:47:49.254Z,18.10
2018-09-03T13:50:23.874Z,15.97
2018-09-03T13:52:56.514Z,17.03
2018-09-03T13:55:29.109Z,15.43
2018-09-03T13:58:03.936Z,16.37
2018-09-03T14:00:36.624Z,16.17
2018-09-03T14:03:10.812Z,16.07
2018-09-03T14:05:44.500Z,15.80
2018-09-03T14:08:21.693Z,14.97
2018-09-03T14:10:56.791Z,15.60
2018-09-03T14:13:30.324Z,14.83
2018-09-03T14:16:06.476Z,16.58
2018-09-03T14:18:40.021Z,17.67
2018-09-03T14:21:13.636Z,16.47
2018-09-03T14:23:48.854Z,17.12
2018-09-03T14:26:24.148Z,16.00
2018-09-03T14:28:57.673Z,15.37
2018-09-03T14:31:33.348Z,14.00
2018-09-03T14:34:08.546Z,16.13
2018-09-03T14:36:44.824Z,17.23
2018-09-03T14:39:22.372Z,18.70
2018-09-03T14:41:54.827Z,19.10
2018-09-03T14:44:31.646Z,19.50
2018-09-03T14:47:06.242Z,16.60
2018-09-03T14:49:40.776Z,16.13
2018-09-03T14:52:15.498Z,15.90
2018-09-03T14:54:49.346Z,19.10
2018-09-03T14:57:23.329Z,17.10
2018-09-03T15:00:00.857Z,17.98
2018-09-03T15:02:40.446Z,17.00
2018-09-03T15:05:13.998Z,16.20
2018-09-03T15:07:49.945Z,15.70
2018-09-03T15:10:23.108Z,16.67
2018-09-03T15:12:56.652Z,17.43
2018-09-03T15:15:33.353Z,16.90
2018-09-03T15:18:11.325Z,18.93
2018-09-03T15:20:49.566Z,17.33
2018-09-03T15:23:27.929Z,17.50
2018-09-03T15:26:10.005Z,17.00
2018-09-03T15:28:49.660Z,20.40
2018-09-03T15:31:28.419Z,16.10
2018-09-03T15:34:06.714Z,16.27
2018-09-03T15:36:47.346Z,17.10
2018-09-03T15:39:25.318Z,16.93
2018-09-03T15:42:04.759Z,19.20
2018-09-03T15:44:43.025Z,21.03
2018-09-03T15:47:22.244Z,18.40
2018-09-03T15:50:01.774Z,21.83
2018-09-03T15:52:37.188Z,19.33
2018-09-03T15:55:10.387Z,17.37
2018-09-03T15:57:44.080Z,20.12
2018-09-03T16:00:17.327Z,20.90
2018-09-03T16:02:52.634Z,22.23
2018-09-03T16:05:26.175Z,20.73
2018-09-03T16:08:05.295Z,20.13
2018-09-03T16:10:39.932Z,20.97
2018-09-03T16:13:14.699Z,20.73
2018-09-03T16:15:49.612Z,22.60
2018-09-03T16:18:22.552Z,21.13
2018-09-03T16:20:57.847Z,19.20
2018-09-03T16:23:30.493Z,18.93
2018-09-03T16:26:04.154Z,18.43
2018-09-03T16:28:38.746Z,20.20
2018-09-03T16:31:13.394Z,20.80
2018-09-03T16:33:46.332Z,19.30
2018-09-03T16:36:20.653Z,19.77
2018-09-03T16:38:55.377Z,18.60
2018-09-03T16:41:29.220Z,18.83
2018-09-03T16:44:05.112Z,19.97
2018-09-03T16:46:37.704Z,17.10
2018-09-03T16:49:12.509Z,20.83
2018-09-03T16:51:47.921Z,18.47
2018-09-03T16:54:23.646Z,16.70
2018-09-03T16:56:57.916Z,22.13
2018-09-03T16:59:32.077Z,18.87
2018-09-03T17:02:05.627Z,20.13
2018-09-03T17:04:39.953Z,20.43
2018-09-03T17:07:14.368Z,18.37
2018-09-03T17:09:49.436Z,20.73
2018-09-03T17:12:28.842Z,20.97
2018-09-03T17:15:05.001Z,19.30
2018-09-03T17:17:39.817Z,18.63
2018-09-03T17:20:17.121Z,16.90
2018-09-03T17:22:52.323Z,20.90
2018-09-03T17:25:25.832Z,20.23
2018-09-03T17:28:00.854Z,20.23
2018-09-03T17:30:35.593Z,19.80
2018-09-03T17:33:11.619Z,22.10
2018-09-03T17:35:46.113Z,20.27
2018-09-03T17:38:20.966Z,19.80
2018-09-03T17:40:53.554Z,21.98
2018-09-03T17:43:26.297Z,21.25
2018-09-03T17:45:59.227Z,21.00
2018-09-03T17:48:33.352Z,22.77
2018-09-03T17:51:07.615Z,20.43
2018-09-03T17:53:41.826Z,18.80
2018-09-03T17:56:18.590Z,21.23
2018-09-03T17:58:51.411Z,23.27
2018-09-03T18:01:24.581Z,21.13
2018-09-03T18:04:00.637Z,22.20
2018-09-03T18:06:34.170Z,20.67
2018-09-03T18:09:09.525Z,21.97
2018-09-03T18:11:43.820Z,23.80
2018-09-03T18:14:16.487Z,22.77
2018-09-03T18:16:49.446Z,20.50
2018-09-03T18:19:25.192Z,25.50
2018-09-03T18:22:00.023Z,19.33
2018-09-03T18:24:35.744Z,23.47
2018-09-03T18:27:09.036Z,21.23
2018-09-03T18:29:41.696Z,22.30
2018-09-03T18:32:18.950Z,24.43
2018-09-03T18:34:54.041Z,22.43
2018-09-03T18:37:29.398Z,24.43
2018-09-03T18:40:06.915Z,23.77
2018-09-03T18:42:41.080Z,24.47
2018-09-03T18:45:16.157Z,23.70
2018-09-03T18:47:49.412Z,21.80
2018-09-03T18:50:22.240Z,21.97
2018-09-03T18:52:58.376Z,24.83
2018-09-03T18:55:32.432Z,21.73
2018-09-03T18:58:07.502Z,22.70
2018-09-03T19:00:42.233Z,19.97
2018-09-03T19:03:14.817Z,26.90
2018-09-03T19:05:54.475Z,25.15
2018-09-03T19:08:29.521Z,25.98
2018-09-03T19:11:03.700Z,24.03
2018-09-03T19:13:41.222Z,26.07
2018-09-03T19:16:16.593Z,22.80
2018-09-03T19:18:55.253Z,26.30
2018-09-03T19:21:30.561Z,23.40
2018-09-03T19:24:06.596Z,33.77
2018-09-03T19:26:44.105Z,23.53
2018-09-03T19:29:17.683Z,19.27
2018-09-03T19:31:57.694Z,23.53
2018-09-03T19:34:37.890Z,27.73
2018-09-03T19:37:11.916Z,30.17
2018-09-03T19:39:45.951Z,26.47
2018-09-03T19:42:19.054Z,27.57
2018-09-03T19:44:54.797Z,25.23
2018-09-03T19:47:27.853Z,26.27
2018-09-03T19:50:01.450Z,30.73
2018-09-03T19:52:34.216Z,32.27
2018-09-03T19:55:09.023Z,30.70
2018-09-03T19:57:43.360Z,28.87
2018-09-03T20:00:17.711Z,24.67
2018-09-03T20:02:51.017Z,27.27
2018-09-03T20:05:24.311Z,25.67
2018-09-03T20:07:57.628Z,28.93
2018-09-03T20:10:32.653Z,25.00
2018-09-03T20:13:07.324Z,27.03
2018-09-03T20:15:40.908Z,26.47
2018-09-03T20:18:14.938Z,30.97
2018-09-03T20:20:49.453Z,30.03
2018-09-03T20:23:23.766Z,26.40
2018-09-03T20:26:00.661Z,27.00
2018-09-03T20:28:36.411Z,27.80
2018-09-03T20:31:11.152Z,25.80
2018-09-03T20:33:46.116Z,23.27
2018-09-03T20:36:18.639Z,23.40
2018-09-03T20:38:54.444Z,19.90
2018-09-03T20:41:29.457Z,25.33
2018-09-03T20:44:10.497Z,22.03
2018-09-03T20:46:51.809Z,25.63
2018-09-03T20:49:25.633Z,30.17
2018-09-03T20:52:00.685Z,27.27
2018-09-03T20:54:33.461Z,33.73
2018-09-03T20:57:09.825Z,31.67
2018-09-03T20:59:43.675Z,30.30
2018-09-03T21:02:20.270Z,33.08
2018-09-03T21:04:54.241Z,29.63
2018-09-03T21:07:27.709Z,27.70
2018-09-03T21:10:03.652Z,32.37
2018-09-03T21:12:37.993Z,30.07
2018-09-03T21:15:12.618Z,35.77
2018-09-03T21:17:46.245Z,34.47
2018-09-03T21:20:19.664Z,34.25
2018-09-03T21:22:52.504Z,29.43
2018-09-03T21:25:27.916Z,34.60
2018-09-03T21:28:01.462Z,34.13
2018-09-03T21:30:34.291Z,33.27
2018-09-03T21:33:07.308Z,33.70
2018-09-03T21:35:40.048Z,34.60
2018-09-03T21:38:14.483Z,40.47
2018-09-03T21:40:48.775Z,32.57
2018-09-03T21:43:22.095Z,39.03
2018-09-03T21:45:54.653Z,39.90
2018-09-03T21:48:29.885Z,40.13
2018-09-03T21:51:04.508Z,34.23
2018-09-03T21:53:38.096Z,37.77
2018-09-03T21:56:12.402Z,38.37
2018-09-03T21:58:46.144Z,37.53
2018-09-03T22:01:20.082Z,42.40
2018-09-03T22:03:53.134Z,36.63
2018-09-03T22:06:27.705Z,38.00
2018-09-03T22:09:03.122Z,44.87
2018-09-03T22:11:37.725Z,44.43
2018-09-03T22:14:12.502Z,40.03
2018-09-03T22:19:18.291Z,40.17
2018-09-03T22:21:52.775Z,35.97
2018-09-03T22:24:25.899Z,38.77
2018-09-03T22:26:59.997Z,39.97
2018-09-03T22:29:32.728Z,47.27
2018-09-03T22:32:05.808Z,47.23
2018-09-03T22:34:39.682Z,47.13
2018-09-03T22:37:12.148Z,42.93
2018-09-03T22:39:44.828Z,45.97
2018-09-03T22:42:18.380Z,50.72
2018-09-03T22:44:51.561Z,45.43
2018-09-03T22:47:24.423Z,50.83
2018-09-03T22:50:01.135Z,45.90
2018-09-03T22:52:33.824Z,60.78
2018-09-03T22:55:07.967Z,50.57
2018-09-03T22:57:42.691Z,51.87
2018-09-03T23:00:19.299Z,45.73
2018-09-03T23:02:52.592Z,58.35
2018-09-03T23:05:25.928Z,55.35
2018-09-03T23:07:58.495Z,48.37
2018-09-03T23:10:32.026Z,45.13
2018-09-03T23:13:04.938Z,46.07
2018-09-03T23:15:50.096Z,47.63
2018-09-03T23:18:23.800Z,57.07
2018-09-03T23:20:58.018Z,56.40
2018-09-03T23:23:30.524Z,57.50
2018-09-03T23:26:04.008Z,67.00
2018-09-03T23:28:37.712Z,62.03
2018-09-03T23:31:10.372Z,58.07
2018-09-03T23:33:43.792Z,66.33
2018-09-03T23:36:17.983Z,86.47
2018-09-03T23:38:51.557Z,64.78
2018-09-03T23:41:24.361Z,60.20
2018-09-03T23:43:57.328Z,72.68
2018-09-03T23:46:29.935Z,70.77
2018-09-03T23:49:03.282Z,64.10
2018-09-03T23:51:37.029Z,73.60
2018-09-03T23:54:10.231Z,74.73
2018-09-03T23:56:44.397Z,73.97
2018-09-03T23:59:17.903Z,74.87
